Time;durP1;ratioP1;P1;durP2;ratioP2;P2;SDS_P1;SDS_P2;PMS_P1;PMS_P2;Temp;Humidity;BMP_temperature;BMP_pressure;BME280_temperature;BME280_humidity;BME280_pressure;Samples;Min_cycle;Max_cycle;Signal;HPM_P1;HPM_P2
2021/05/22 00:00:05;;;;;;;3.70;1.02;;;;;;;11.91;76.62;99199.00;10257539;28;20105;-74
2021/05/22 00:05:07;;;;;;;3.25;1.15;;;;;;;11.94;76.89;99176.56;10261785;28;20050;-74
2021/05/22 00:10:11;;;;;;;3.88;1.10;;;;;;;11.61;76.98;99161.16;10262711;28;20074;-74
2021/05/22 00:15:15;;;;;;;2.67;1.48;;;;;;;11.61;77.15;99129.16;10260495;28;20116;-73
2021/05/22 00:20:17;;;;;;;3.47;1.25;;;;;;;11.70;76.51;99134.56;10242149;28;20055;-74
2021/05/22 00:25:19;;;;;;;3.90;1.58;;;;;;;11.58;76.35;99152.66;10256633;28;20086;-73
2021/05/22 00:30:20;;;;;;;2.20;0.98;;;;;;;11.76;74.95;99141.94;10259980;28;20067;-74
2021/05/22 00:35:22;;;;;;;3.03;1.52;;;;;;;11.59;75.24;99131.16;10254919;28;20055;-74
2021/05/22 00:40:23;;;;;;;3.65;1.00;;;;;;;11.51;75.42;99139.09;10266158;28;20102;-73
2021/05/22 00:45:25;;;;;;;3.53;0.98;;;;;;;11.56;75.32;99150.16;10244714;28;20484;-73
2021/05/22 00:50:30;;;;;;;2.90;0.68;;;;;;;11.55;75.35;99128.97;10267112;28;20059;-73
2021/05/22 00:55:32;;;;;;;3.72;1.63;;;;;;;11.68;75.21;99142.72;10253255;28;20149;-74
2021/05/22 01:00:43;;;;;;;4.38;1.15;;;;;;;11.80;76.24;99159.25;10266415;28;20055;-77
2021/05/22 01:05:46;;;;;;;3.50;1.02;;;;;;;11.47;75.48;99159.09;10239596;28;20066;-73
2021/05/22 01:10:55;;;;;;;4.05;0.82;;;;;;;11.29;76.73;99162.59;10265976;28;20505;-74
2021/05/22 01:15:57;;;;;;;3.05;0.90;;;;;;;11.21;76.58;99170.53;10248129;28;20074;-74
2021/05/22 01:21:01;;;;;;;3.05;0.90;;;;;;;11.15;77.11;99187.13;10249237;28;20165;-72
2021/05/22 01:26:03;;;;;;;2.60;0.60;;;;;;;11.16;76.84;99178.16;10247724;28;20142;-71
2021/05/22 01:31:07;;;;;;;1.90;0.70;;;;;;;11.06;77.54;99188.03;10251929;28;20381;-73
2021/05/22 01:36:08;;;;;;;3.95;0.98;;;;;;;10.99;78.62;99187.84;10257848;28;20118;-73
2021/05/22 01:41:10;;;;;;;2.17;0.90;;;;;;;11.20;78.48;99179.53;10243568;28;20226;-72
2021/05/22 01:46:11;;;;;;;1.75;0.60;;;;;;;11.26;78.02;99194.88;10254169;28;20109;-73
2021/05/22 01:51:16;;;;;;;3.47;1.77;;;;;;;10.98;79.10;99186.16;10248264;28;20054;-72
2021/05/22 01:56:19;;;;;;;;;;;;;;;10.92;80.28;99182.25;10232792;28;20782;-71
2021/05/22 02:01:24;;;;;;;2.80;0.80;;;;;;;10.95;80.50;99179.28;10257873;28;20364;-72
2021/05/22 02:06:29;;;;;;;2.75;0.90;;;;;;;11.17;80.31;99200.28;10243017;28;20605;-72
2021/05/22 02:11:38;;;;;;;5.28;0.75;;;;;;;11.07;79.25;99184.41;10260089;28;20062;-70
2021/05/22 02:16:48;;;;;;;2.30;0.80;;;;;;;11.16;79.66;99187.97;10255222;28;20122;-73
2021/05/22 02:21:50;;;;;;;2.22;0.90;;;;;;;11.16;79.76;99195.97;10245845;28;20069;-72
2021/05/22 02:26:56;;;;;;;1.50;0.90;;;;;;;11.01;81.08;99177.03;10264940;28;20141;-73
2021/05/22 02:32:03;;;;;;;1.00;0.80;;;;;;;11.02;80.85;99187.53;10260576;28;20123;-74
2021/05/22 02:37:06;;;;;;;1.48;1.13;;;;;;;10.82;81.70;99186.81;10259919;28;20075;-72
2021/05/22 02:42:09;;;;;;;3.65;1.13;;;;;;;10.82;81.05;99178.00;10232085;28;20147;-73
2021/05/22 02:47:11;;;;;;;2.33;1.00;;;;;;;10.75;81.07;99169.81;10241373;28;20101;-73
2021/05/22 02:52:17;;;;;;;3.05;1.10;;;;;;;10.94;81.42;99174.13;10259783;28;20136;-75
2021/05/22 02:57:19;;;;;;;3.05;0.73;;;;;;;10.94;81.03;99177.63;10252226;28;20235;-72
2021/05/22 03:02:21;;;;;;;1.52;0.80;;;;;;;10.69;81.25;99170.38;10251105;28;20066;-74
2021/05/22 03:07:22;;;;;;;2.35;0.77;;;;;;;10.63;81.69;99163.84;10247537;28;20051;-74
2021/05/22 03:12:29;;;;;;;3.80;0.60;;;;;;;10.74;81.43;99163.63;10254691;28;20099;-73
2021/05/22 03:17:31;;;;;;;2.78;0.88;;;;;;;10.65;80.92;99158.38;10248316;28;20138;-72
2021/05/22 03:22:33;;;;;;;1.95;0.80;;;;;;;10.44;81.19;99164.81;10266378;28;20486;-70
2021/05/22 03:27:36;;;;;;;2.50;0.80;;;;;;;10.51;81.21;99163.22;10251196;28;20063;-70
2021/05/22 03:32:38;;;;;;;2.97;1.00;;;;;;;10.43;80.51;99145.34;10263884;28;20062;-72
2021/05/22 03:37:39;;;;;;;1.95;0.90;;;;;;;10.24;80.84;99151.59;10263737;28;20069;-73
2021/05/22 03:42:41;;;;;;;2.63;0.93;;;;;;;10.11;80.54;99161.72;10256758;28;20067;-74
2021/05/22 03:47:42;;;;;;;3.88;1.35;;;;;;;9.97;80.57;99149.75;10265401;28;20059;-73
2021/05/22 03:52:44;;;;;;;2.45;0.93;;;;;;;9.91;80.45;99159.16;10259792;28;20140;-72
2021/05/22 03:57:45;;;;;;;2.67;1.00;;;;;;;9.84;81.08;99166.03;10259449;28;20129;-74
2021/05/22 04:02:46;;;;;;;5.63;1.10;;;;;;;9.70;81.06;99153.22;10258097;28;20509;-71
2021/05/22 04:07:48;;;;;;;5.47;1.15;;;;;;;9.67;81.28;99157.00;10252142;28;20522;-72
2021/05/22 04:12:49;;;;;;;2.88;1.10;;;;;;;9.74;81.68;99175.84;10263884;28;20101;-73
2021/05/22 04:17:51;;;;;;;3.63;1.15;;;;;;;9.77;80.75;99170.25;10272169;28;20053;-73
2021/05/22 04:22:52;;;;;;;4.90;1.02;;;;;;;9.70;80.48;99169.16;10266217;28;20124;-75
2021/05/22 04:27:54;;;;;;;2.03;1.20;;;;;;;9.72;80.61;99159.22;10264777;28;20145;-73
2021/05/22 04:32:55;;;;;;;3.97;1.30;;;;;;;9.78;80.35;99165.78;10256937;28;20075;-73
2021/05/22 04:37:57;;;;;;;3.28;1.10;;;;;;;9.83;80.46;99177.66;10263694;28;20054;-73
2021/05/22 04:42:59;;;;;;;6.72;1.42;;;;;;;9.94;80.30;99176.63;10251622;28;20051;-74
2021/05/22 04:48:01;;;;;;;6.35;1.30;;;;;;;9.94;81.04;99178.44;10250604;28;20432;-73
2021/05/22 04:53:02;;;;;;;2.00;1.20;;;;;;;9.91;80.40;99193.72;10247020;28;20082;-73
2021/05/22 04:58:04;;;;;;;4.63;1.30;;;;;;;9.89;80.54;99179.75;10267681;28;20077;-73
2021/05/22 05:03:05;;;;;;;4.75;1.38;;;;;;;9.89;80.58;99193.03;10265519;23;20054;-71
2021/05/22 05:08:07;;;;;;;4.00;1.40;;;;;;;10.00;80.49;99191.19;10296911;28;20047;-70
2021/05/22 05:13:08;;;;;;;7.75;2.88;;;;;;;10.12;80.56;99184.69;10289807;28;20046;-71
2021/05/22 05:18:10;;;;;;;3.13;1.33;;;;;;;10.21;80.60;99202.41;10290509;28;20054;-71
2021/05/22 05:23:12;;;;;;;2.97;1.08;;;;;;;10.29;78.03;99198.19;10270285;28;20557;-70
2021/05/22 05:28:13;;;;;;;3.35;1.20;;;;;;;10.38;78.60;99200.00;10278473;28;20074;-70
2021/05/22 05:33:15;;;;;;;4.70;2.50;;;;;;;10.45;76.70;99203.75;10289828;28;20063;-70
2021/05/22 05:38:17;;;;;;;4.00;1.27;;;;;;;10.48;76.69;99203.44;10282553;28;20145;-72
2021/05/22 05:43:19;;;;;;;6.38;1.20;;;;;;;10.60;75.87;99204.91;10272590;28;20054;-70
2021/05/22 05:48:20;;;;;;;5.22;1.30;;;;;;;10.86;73.91;99208.66;10287770;28;20540;-71
2021/05/22 05:53:22;;;;;;;4.63;1.50;;;;;;;11.01;71.16;99212.47;10296669;28;20054;-70
2021/05/22 05:58:23;;;;;;;3.25;0.90;;;;;;;10.84;70.97;99194.66;10279219;28;20049;-71
2021/05/22 06:03:30;;;;;;;6.25;1.33;;;;;;;10.85;70.52;99206.97;10302958;28;20070;-69
2021/05/22 06:08:31;;;;;;;2.88;0.98;;;;;;;10.92;69.73;99208.88;10307327;28;20045;-72
2021/05/22 06:13:34;;;;;;;4.25;1.20;;;;;;;11.22;67.99;99195.34;10300121;28;20085;-74
2021/05/22 06:18:37;;;;;;;4.97;1.27;;;;;;;11.34;68.05;99179.97;10292973;28;20049;-69
2021/05/22 06:23:39;;;;;;;2.72;0.73;;;;;;;11.51;67.21;99181.75;10299363;28;20398;-69
2021/05/22 06:28:41;;;;;;;4.82;1.52;;;;;;;11.48;66.00;99190.91;10310029;28;20457;-72
2021/05/22 06:33:43;;;;;;;2.95;0.93;;;;;;;11.47;65.53;99196.38;10305617;28;20101;-73
2021/05/22 06:38:44;;;;;;;3.95;1.35;;;;;;;11.58;65.00;99198.78;10293991;28;20141;-69
2021/05/22 06:43:46;;;;;;;6.30;1.20;;;;;;;11.64;63.00;99192.81;10309018;28;20527;-70
2021/05/22 06:48:47;;;;;;;5.80;1.55;;;;;;;11.74;63.80;99218.53;10288279;28;20057;-71
2021/05/22 06:53:49;;;;;;;3.95;1.30;;;;;;;12.04;61.08;99206.63;10305567;28;20105;-73
2021/05/22 06:58:50;;;;;;;5.80;1.92;;;;;;;12.35;59.57;99193.56;10300906;28;20224;-71
2021/05/22 07:03:54;;;;;;;3.92;1.13;;;;;;;12.38;59.10;99211.09;10300600;28;20082;-72
2021/05/22 07:08:56;;;;;;;5.17;1.30;;;;;;;12.26;59.86;99223.88;10311058;28;20420;-70
2021/05/22 07:13:57;;;;;;;3.72;1.50;;;;;;;11.94;60.09;99217.38;10312038;28;20057;-69
2021/05/22 07:18:59;;;;;;;5.32;1.00;;;;;;;12.19;60.43;99209.53;10312645;28;20066;-71
2021/05/22 07:24:00;;;;;;;4.65;1.23;;;;;;;12.33;60.32;99202.75;10312974;28;20054;-72
2021/05/22 07:29:03;;;;;;;6.95;1.45;;;;;;;12.68;59.24;99233.72;10302890;28;20074;-73
2021/05/22 07:34:05;;;;;;;6.03;1.05;;;;;;;12.87;58.23;99231.78;10316899;28;20042;-70
2021/05/22 07:39:10;;;;;;;3.95;0.90;;;;;;;13.27;58.13;99232.84;10299934;28;20531;-71
2021/05/22 07:44:17;;;;;;;3.83;1.48;;;;;;;13.00;57.53;99242.84;10312589;28;20129;-72
2021/05/22 07:49:23;;;;;;;6.00;1.48;;;;;;;12.63;59.09;99229.88;10301133;28;20065;-73
2021/05/22 07:54:24;;;;;;;2.88;0.93;;;;;;;12.58;59.14;99243.72;10318994;28;20152;-70
2021/05/22 07:59:26;;;;;;;5.00;1.63;;;;;;;12.58;59.03;99253.53;10312513;28;20050;-70
2021/05/22 08:04:27;;;;;;;3.75;0.70;;;;;;;12.65;59.77;99274.09;10257160;28;20129;-70
2021/05/22 08:09:28;;;;;;;4.32;0.98;;;;;;;12.58;58.15;99249.06;10262545;28;20121;-72
2021/05/22 08:14:30;;;;;;;3.60;0.80;;;;;;;12.72;57.76;99279.63;10262672;28;20055;-71
2021/05/22 08:19:32;;;;;;;3.70;0.95;;;;;;;12.76;57.99;99254.28;10264188;28;20175;-69
2021/05/22 08:24:33;;;;;;;4.43;1.35;;;;;;;12.60;57.65;99257.72;10260353;28;20073;-69
2021/05/22 08:29:35;;;;;;;4.75;1.60;;;;;;;12.78;57.99;99260.28;10259822;28;20079;-68
2021/05/22 08:34:39;;;;;;;4.38;1.33;;;;;;;12.64;56.57;99268.91;10249593;28;20051;-69
2021/05/22 08:39:44;;;;;;;2.63;1.45;;;;;;;12.90;56.38;99263.50;10245464;28;20137;-70
2021/05/22 08:44:46;;;;;;;2.53;0.90;;;;;;;12.99;55.62;99261.69;10258914;28;20049;-69
2021/05/22 08:49:47;;;;;;;3.65;0.98;;;;;;;13.06;54.76;99258.19;10247151;28;20070;-71
2021/05/22 08:54:49;;;;;;;3.40;0.88;;;;;;;12.89;54.37;99267.16;10246437;28;20051;-70
2021/05/22 08:59:51;;;;;;;3.63;0.93;;;;;;;12.76;54.72;99269.47;10230369;28;20081;-71
2021/05/22 09:05:04;;;;;;;3.45;1.00;;;;;;;12.78;55.11;99278.16;10286691;28;20114;-73
2021/05/22 09:10:19;;;;;;;2.47;0.80;;;;;;;12.93;55.15;99278.38;10294657;28;20146;-71
2021/05/22 09:15:25;;;;;;;;;;;;;;;13.21;54.18;99273.56;10279737;28;20042;-72
2021/05/22 09:20:32;;;;;;;5.88;3.70;;;;;;;13.35;54.31;99267.63;10296013;28;20583;-71
2021/05/22 09:25:47;;;;;;;3.92;1.15;;;;;;;13.40;53.49;99272.47;10283660;28;20771;-71
2021/05/22 09:30:51;;;;;;;2.17;0.95;;;;;;;13.44;53.72;99261.28;10296106;28;20054;-72
2021/05/22 09:36:03;;;;;;;5.03;1.67;;;;;;;13.53;52.81;99266.66;10299615;28;20114;-71
2021/05/22 09:41:25;;;;;;;2.25;0.80;;;;;;;13.87;52.40;99270.97;10295670;28;20196;-74
2021/05/22 09:46:26;;;;;;;2.13;1.00;;;;;;;14.15;52.37;99276.78;10294165;28;20069;-72
2021/05/22 09:51:28;;;;;;;2.75;0.63;;;;;;;13.94;51.86;99277.31;10283396;28;20720;-72
2021/05/22 09:56:29;;;;;;;3.38;0.80;;;;;;;13.64;51.36;99268.97;10283859;28;20137;-72
2021/05/22 10:01:42;;;;;;;3.05;1.58;;;;;;;13.47;51.75;99272.66;10293329;28;20046;-72
2021/05/22 10:06:43;;;;;;;5.70;0.70;;;;;;;13.56;52.41;99277.00;10289153;28;20101;-72
2021/05/22 10:12:04;;;;;;;3.10;0.80;;;;;;;13.81;51.11;99266.28;10271785;28;20133;-71
2021/05/22 10:17:08;;;;;;;2.17;0.63;;;;;;;13.89;51.19;99272.47;10270153;28;20184;-71
2021/05/22 10:22:09;;;;;;;2.63;0.70;;;;;;;13.94;50.71;99288.00;10284352;28;20105;-71
2021/05/22 10:27:12;;;;;;;3.45;1.10;;;;;;;14.00;51.04;99287.34;10277398;28;20344;-73
2021/05/22 10:32:22;;;;;;;3.72;1.23;;;;;;;14.04;51.15;99296.69;10291851;28;20078;-73
2021/05/22 10:37:38;;;;;;;3.92;0.98;;;;;;;14.11;50.74;99291.50;10287313;28;20064;-70
2021/05/22 10:42:47;;;;;;;2.53;0.80;;;;;;;14.11;50.27;99292.34;10293411;28;20042;-70
2021/05/22 10:47:48;;;;;;;2.67;0.80;;;;;;;14.10;51.35;99300.53;10292894;28;20062;-69
2021/05/22 10:53:15;;;;;;;2.15;1.50;;;;;;;13.94;56.47;99299.53;10292874;28;20136;-71
2021/05/22 10:58:17;;;;;;;4.05;0.90;;;;;;;14.22;54.66;99307.22;10276582;28;20046;-71
2021/05/22 11:03:18;;;;;;;3.42;0.70;;;;;;;14.09;55.04;99322.94;10293242;28;20572;-72
2021/05/22 11:08:22;;;;;;;5.10;1.13;;;;;;;14.77;53.27;99318.13;10303616;23;20110;-60
2021/05/22 11:13:24;;;;;;;1.83;0.57;;;;;;;15.74;50.93;99320.41;10283263;28;20124;-59
2021/05/22 11:18:34;;;;;;;2.42;0.50;;;;;;;16.01;48.59;99337.81;10281008;28;20096;-59
2021/05/22 11:23:55;;;;;;;4.30;0.70;;;;;;;16.29;47.10;99326.50;10264740;28;20814;-60
2021/05/22 11:28:56;;;;;;;2.17;0.50;;;;;;;16.23;45.35;99344.16;10269087;28;20074;-60
2021/05/22 11:34:37;;;;;;;3.38;0.75;;;;;;;15.97;46.27;99327.63;10260909;28;20713;-60
2021/05/22 11:39:44;;;;;;;1.88;0.80;;;;;;;15.55;46.54;99335.13;10090367;29;20056;-58
2021/05/22 11:44:56;;;;;;;2.60;0.85;;;;;;;15.95;46.38;99333.19;10247457;28;20058;-59
2021/05/22 11:49:59;;;;;;;3.90;0.88;;;;;;;16.04;46.15;99334.75;10286904;28;20181;-59
2021/05/22 11:55:17;;;;;;;1.95;0.70;;;;;;;15.95;46.70;99325.13;10275787;28;20050;-59
2021/05/22 12:00:26;;;;;;;3.05;1.20;;;;;;;15.55;47.65;99333.28;10286963;28;20570;-59
2021/05/22 12:05:38;;;;;;;3.28;1.77;;;;;;;15.19;47.53;99351.75;10286165;28;20554;-60
2021/05/22 12:10:39;;;;;;;2.97;0.80;;;;;;;15.27;48.77;99361.63;10284923;28;20465;-59
2021/05/22 12:15:43;;;;;;;4.95;0.70;;;;;;;15.64;49.94;99362.72;10285066;28;20189;-59
2021/05/22 12:20:48;;;;;;;3.25;0.80;;;;;;;15.59;47.83;99365.13;10287581;28;20061;-59
2021/05/22 12:25:53;;;;;;;2.13;0.75;;;;;;;15.77;48.46;99346.88;10285866;28;20058;-59
2021/05/22 12:31:00;;;;;;;1.73;0.50;;;;;;;16.62;46.29;99326.16;10287349;28;20470;-59
2021/05/22 12:36:04;;;;;;;3.60;0.80;;;;;;;17.45;44.17;99347.47;10285231;28;20135;-59
2021/05/22 12:41:06;;;;;;;1.73;0.70;;;;;;;16.93;45.10;99349.31;10286071;28;20053;-59
2021/05/22 12:46:22;;;;;;;4.43;0.70;;;;;;;16.19;47.89;99367.03;10285774;28;20050;-60
2021/05/22 12:51:24;;;;;;;2.15;0.70;;;;;;;15.73;47.46;99362.50;10284828;28;20112;-60
2021/05/22 12:56:25;;;;;;;4.55;0.95;;;;;;;16.06;46.37;99369.47;10285732;28;20058;-60
2021/05/22 13:01:27;;;;;;;2.83;0.70;;;;;;;16.26;44.54;99361.78;10286019;28;20140;-59
2021/05/22 13:06:30;;;;;;;2.35;0.73;;;;;;;16.72;43.00;99369.69;10286620;28;20054;-60
2021/05/22 13:11:31;;;;;;;2.55;0.55;;;;;;;16.69;42.26;99342.34;10294512;28;20078;-60
2021/05/22 13:16:33;;;;;;;3.22;0.57;;;;;;;16.29;43.12;99341.75;10303976;28;20577;-59
2021/05/22 13:21:35;;;;;;;2.15;0.80;;;;;;;15.80;44.58;99383.28;10290406;28;20140;-60
2021/05/22 13:26:38;;;;;;;1.67;0.80;;;;;;;15.71;46.20;99369.88;10285262;28;20050;-60
2021/05/22 13:31:41;;;;;;;2.95;0.95;;;;;;;15.54;48.33;99389.78;10269330;28;20053;-59
2021/05/22 13:36:43;;;;;;;1.92;0.60;;;;;;;15.61;52.83;99387.22;10296202;28;20050;-59
2021/05/22 13:41:46;;;;;;;2.08;0.68;;;;;;;15.85;51.04;99391.63;10299265;28;20395;-59
2021/05/22 13:46:49;;;;;;;3.15;0.73;;;;;;;16.39;51.07;99374.56;10290584;28;20054;-59
2021/05/22 13:51:50;;;;;;;3.45;0.70;;;;;;;16.57;48.22;99368.84;10296736;28;20054;-59
2021/05/22 13:56:52;;;;;;;2.13;0.90;;;;;;;17.08;48.71;99376.19;10284166;28;20607;-59
2021/05/22 14:01:53;;;;;;;2.35;0.90;;;;;;;16.72;48.33;99363.47;10288410;28;20097;-60
2021/05/22 14:06:55;;;;;;;6.18;1.30;;;;;;;16.28;47.84;99366.97;10273071;28;20206;-60
2021/05/22 14:11:56;;;;;;;1.58;0.60;;;;;;;16.34;47.01;99385.84;10265879;28;20156;-60
2021/05/22 14:16:58;;;;;;;5.35;0.80;;;;;;;16.63;46.58;99375.34;10277819;28;20077;-60
2021/05/22 14:21:59;;;;;;;1.63;0.55;;;;;;;16.68;41.62;99378.28;10275728;28;20565;-60
2021/05/22 14:27:01;;;;;;;1.38;0.52;;;;;;;16.42;42.33;99368.81;10277219;28;20529;-59
2021/05/22 14:32:03;;;;;;;1.38;0.30;;;;;;;16.26;43.01;99376.03;10276770;28;20490;-60
2021/05/22 14:37:05;;;;;;;1.35;0.30;;;;;;;16.33;43.36;99396.78;10276716;28;20111;-60
2021/05/22 14:42:06;;;;;;;2.30;0.50;;;;;;;16.23;43.71;99389.81;10275655;28;20097;-59
2021/05/22 14:47:08;;;;;;;0.80;0.30;;;;;;;16.46;44.67;99385.41;10278302;28;20184;-59
2021/05/22 14:52:10;;;;;;;1.40;0.30;;;;;;;16.68;44.92;99389.88;10277277;28;20154;-61
2021/05/22 14:57:11;;;;;;;2.08;0.60;;;;;;;16.74;44.62;99399.91;10277755;28;20070;-60
2021/05/22 15:02:12;;;;;;;1.40;0.40;;;;;;;16.68;43.32;99378.28;10276213;28;20153;-60
2021/05/22 15:07:14;;;;;;;2.10;0.50;;;;;;;16.79;43.05;99377.84;10275450;28;20165;-59
2021/05/22 15:12:15;;;;;;;2.03;0.50;;;;;;;16.86;41.54;99368.03;10273402;28;20133;-59
2021/05/22 15:17:17;;;;;;;1.35;0.50;;;;;;;16.76;41.55;99360.22;10271349;28;20094;-60
2021/05/22 15:22:18;;;;;;;1.52;0.50;;;;;;;16.46;42.41;99354.00;10274583;28;20117;-59
2021/05/22 15:27:20;;;;;;;3.35;1.10;;;;;;;16.35;41.50;99339.19;10280822;28;20070;-60
2021/05/22 15:32:22;;;;;;;1.90;0.63;;;;;;;16.26;40.92;99359.91;10280375;28;20212;-60
2021/05/22 15:37:23;;;;;;;3.10;1.08;;;;;;;16.34;41.27;99377.78;10277041;28;20144;-60
2021/05/22 15:42:27;;;;;;;3.50;0.50;;;;;;;16.49;41.13;99375.13;10279810;28;20058;-59
2021/05/22 16:08:23;;;;;;;;;;;;;;;16.49;40.95;99377.81;10275543;28;20050;-60
2021/05/22 16:13:24;;;;;;;2.00;0.50;;;;;;;16.63;41.47;99383.38;10275384;28;19980;-60
2021/05/22 16:18:25;;;;;;;2.35;0.60;;;;;;;16.82;41.46;99390.91;10270377;28;20313;-60
2021/05/22 16:23:27;;;;;;;0.88;0.47;;;;;;;16.63;40.33;99399.50;10273947;28;20047;-60
2021/05/22 16:28:29;;;;;;;2.22;1.15;;;;;;;16.38;41.12;99389.03;10267724;28;20054;-59
2021/05/22 16:33:30;;;;;;;2.13;0.75;;;;;;;16.25;41.95;99400.38;10280150;28;20062;-58
2021/05/22 16:38:31;;;;;;;2.97;0.68;;;;;;;16.33;42.57;99407.50;10265869;28;20962;-59
2021/05/22 16:43:33;;;;;;;2.65;0.98;;;;;;;16.25;41.86;99393.13;10269903;28;20221;-61
2021/05/22 16:48:34;;;;;;;4.22;0.80;;;;;;;16.26;42.35;99385.94;10283042;28;20144;-60
2021/05/22 16:53:36;;;;;;;1.98;0.60;;;;;;;16.26;41.73;99377.88;10281669;28;20065;-60
2021/05/22 16:58:38;;;;;;;1.88;0.57;;;;;;;16.19;42.07;99404.59;10280202;28;20054;-61
2021/05/22 17:03:39;;;;;;;3.28;0.68;;;;;;;16.13;42.19;99423.31;10281068;28;20509;-60
2021/05/22 17:08:41;;;;;;;2.90;0.93;;;;;;;16.21;42.43;99431.28;10281530;28;20050;-60
2021/05/22 17:13:43;;;;;;;1.42;0.65;;;;;;;16.13;42.40;99464.41;10281588;28;20058;-60
2021/05/22 17:18:45;;;;;;;3.63;0.85;;;;;;;15.99;43.74;99443.69;10257232;23;20050;-54
2021/05/22 17:23:46;;;;;;;1.20;0.73;;;;;;;15.87;43.52;99462.88;10279168;28;20903;-54
2021/05/22 17:28:48;;;;;;;2.17;1.33;;;;;;;15.83;44.39;99452.69;10280038;28;20070;-53
2021/05/22 17:33:49;;;;;;;4.72;0.85;;;;;;;15.86;44.06;99455.03;10277115;28;20120;-54
2021/05/22 17:38:51;;;;;;;3.92;1.30;;;;;;;15.78;44.46;99431.75;10277442;28;20078;-54
2021/05/22 17:43:52;;;;;;;3.85;0.93;;;;;;;15.92;44.14;99448.94;10276013;28;21055;-54
2021/05/22 17:48:58;;;;;;;1.65;0.60;;;;;;;15.94;43.66;99459.50;10278061;28;20116;-55
2021/05/22 17:54:00;;;;;;;1.55;0.50;;;;;;;15.78;42.98;99453.22;10276960;28;20543;-55
2021/05/22 17:59:01;;;;;;;3.10;0.52;;;;;;;15.88;42.73;99455.66;10277831;28;20053;-56
2021/05/22 18:04:04;;;;;;;2.20;1.35;;;;;;;15.81;43.63;99458.25;10275471;28;20471;-55
2021/05/22 18:09:05;;;;;;;2.58;0.65;;;;;;;15.71;44.62;99458.41;10279057;28;20495;-54
2021/05/22 18:14:07;;;;;;;2.15;0.60;;;;;;;15.58;45.18;99446.59;10274919;28;20077;-55
2021/05/22 18:19:08;;;;;;;1.50;0.65;;;;;;;15.49;45.67;99467.25;10273951;28;20522;-56
2021/05/22 18:24:10;;;;;;;11.68;4.43;;;;;;;15.31;46.79;99457.63;10275602;28;20557;-55
2021/05/22 18:29:11;;;;;;;2.22;1.35;;;;;;;15.27;47.82;99460.81;10272461;28;20128;-62
2021/05/22 18:34:14;;;;;;;2.90;0.70;;;;;;;15.05;47.33;99446.31;10273063;28;20675;-55
2021/05/22 18:39:15;;;;;;;1.95;0.52;;;;;;;14.98;47.46;99464.91;10273826;28;20101;-55
2021/05/22 18:44:17;;;;;;;2.00;0.75;;;;;;;14.95;46.78;99484.00;10274378;28;20073;-56
2021/05/22 18:49:18;;;;;;;2.78;0.75;;;;;;;15.03;46.56;99486.69;10272908;28;20062;-53
2021/05/22 18:54:19;;;;;;;3.35;0.65;;;;;;;14.83;45.41;99500.47;10280809;28;20058;-54
2021/05/22 18:59:21;;;;;;;2.33;0.93;;;;;;;14.42;45.99;99452.22;10282996;28;20065;-56
2021/05/22 19:04:23;;;;;;;3.10;1.27;;;;;;;14.61;46.27;99514.53;10280829;28;20085;-54
2021/05/22 19:09:24;;;;;;;2.60;0.70;;;;;;;14.47;46.82;99530.22;10282581;28;20149;-54
2021/05/22 19:14:26;;;;;;;4.00;0.70;;;;;;;14.29;47.55;99532.22;10259749;28;20202;-58
2021/05/22 19:19:27;;;;;;;2.80;0.95;;;;;;;14.27;48.24;99540.41;10266338;28;20534;-53
2021/05/22 19:24:29;;;;;;;2.47;1.40;;;;;;;14.15;49.02;99547.91;10239829;28;20050;-56
2021/05/22 19:29:30;;;;;;;3.00;1.27;;;;;;;14.15;49.18;99563.13;10244079;28;20098;-56
2021/05/22 19:34:32;;;;;;;2.47;1.13;;;;;;;14.05;49.73;99557.94;10242414;28;20129;-55
2021/05/22 19:39:33;;;;;;;5.03;1.75;;;;;;;14.09;49.96;99564.63;10239550;28;20146;-55
2021/05/22 19:44:39;;;;;;;3.65;1.00;;;;;;;14.12;50.43;99572.31;10238578;28;20137;-55
2021/05/22 19:49:41;;;;;;;4.10;1.17;;;;;;;14.06;50.57;99569.47;10237315;28;20074;-55
2021/05/22 19:54:42;;;;;;;5.07;1.20;;;;;;;14.08;51.36;99579.03;10240973;28;20058;-55
2021/05/22 19:59:44;;;;;;;3.33;1.25;;;;;;;14.01;50.73;99558.44;10243290;28;20075;-55
2021/05/22 20:04:45;;;;;;;3.47;1.13;;;;;;;14.20;51.17;99589.41;10240339;28;20054;-55
2021/05/22 20:09:47;;;;;;;5.43;1.38;;;;;;;14.20;51.65;99600.13;10224568;28;20070;-55
2021/05/22 20:14:48;;;;;;;2.53;1.00;;;;;;;13.94;52.26;99593.00;10238754;28;20549;-56
2021/05/22 20:19:50;;;;;;;4.93;1.23;;;;;;;13.89;53.46;99606.03;10224253;28;20063;-55
2021/05/22 20:24:51;;;;;;;3.28;0.90;;;;;;;13.81;53.83;99622.91;10240005;28;20134;-54
2021/05/22 20:29:56;;;;;;;4.22;1.38;;;;;;;14.02;53.25;99621.63;10237515;28;20066;-56
2021/05/22 20:34:57;;;;;;;5.68;1.48;;;;;;;14.05;53.86;99624.84;10239004;28;20546;-55
2021/05/22 20:39:59;;;;;;;3.00;1.15;;;;;;;14.14;53.79;99621.19;10237989;28;20066;-54
2021/05/22 20:45:00;;;;;;;2.38;1.10;;;;;;;14.25;53.37;99630.75;10236717;28;20126;-56
2021/05/22 20:50:04;;;;;;;2.28;1.17;;;;;;;14.31;53.68;99631.94;10235562;28;20059;-55
2021/05/22 20:55:08;;;;;;;2.60;1.23;;;;;;;14.29;53.86;99639.28;10236238;28;20751;-54
2021/05/22 21:00:10;;;;;;;3.60;1.40;;;;;;;14.28;53.94;99645.66;10238411;28;20087;-54
2021/05/22 21:05:16;;;;;;;3.80;1.50;;;;;;;14.23;54.26;99646.16;10236439;28;20376;-54
2021/05/22 21:10:19;;;;;;;2.28;1.10;;;;;;;14.27;53.67;99643.97;10235880;28;20665;-55
2021/05/22 21:15:26;;;;;;;3.42;1.20;;;;;;;14.23;52.77;99637.25;10219387;28;20204;-56
2021/05/22 21:20:29;;;;;;;3.22;1.23;;;;;;;14.11;52.98;99648.28;10265083;28;20066;-55
2021/05/22 21:25:31;;;;;;;3.28;1.02;;;;;;;14.00;52.85;99653.06;10284197;28;20151;-56
2021/05/22 21:30:33;;;;;;;2.20;1.02;;;;;;;13.90;53.76;99639.81;10286746;28;20495;-56
2021/05/22 21:35:35;;;;;;;4.03;1.20;;;;;;;13.83;54.78;99646.81;10287401;28;20129;-56
2021/05/22 21:40:36;;;;;;;2.10;0.85;;;;;;;13.67;55.84;99643.03;10282567;28;20055;-54
2021/05/22 21:45:38;;;;;;;4.22;1.58;;;;;;;13.41;56.92;99640.38;10287093;28;20402;-55
2021/05/22 21:50:40;;;;;;;2.90;1.20;;;;;;;13.29;57.85;99642.44;10288363;28;20767;-55
2021/05/22 21:55:41;;;;;;;1.60;0.70;;;;;;;13.19;58.43;99653.19;10283214;28;20124;-54
2021/05/22 22:00:47;;;;;;;1.70;1.00;;;;;;;13.16;58.65;99660.69;10281133;28;20104;-55
2021/05/22 22:05:54;;;;;;;1.50;0.77;;;;;;;13.16;59.36;99653.50;10280802;28;20694;-53
2021/05/22 22:10:58;;;;;;;1.52;0.57;;;;;;;13.07;59.21;99667.81;10279741;28;20511;-53
2021/05/22 22:15:59;;;;;;;2.33;0.82;;;;;;;13.09;58.93;99673.84;10278732;28;20326;-55
2021/05/22 22:21:17;;;;;;;2.83;0.88;;;;;;;13.04;59.53;99674.28;10275980;28;20515;-55
2021/05/22 22:26:18;;;;;;;1.77;0.70;;;;;;;12.88;60.03;99676.81;10272577;28;20077;-56
2021/05/22 22:31:20;;;;;;;1.80;0.75;;;;;;;12.85;59.90;99661.09;10271019;28;20507;-54
2021/05/22 22:36:22;;;;;;;1.70;0.52;;;;;;;12.75;60.85;99673.69;10273542;28;20062;-55
2021/05/22 22:41:27;;;;;;;1.25;0.80;;;;;;;12.77;60.74;99664.53;10271862;28;20157;-55
2021/05/22 22:46:29;;;;;;;;;;;;;;;12.80;60.85;99674.06;10271310;28;20562;-54
2021/05/22 22:51:30;;;;;;;2.35;0.40;;;;;;;12.78;61.13;99671.56;10273698;28;19929;-54
2021/05/22 22:56:32;;;;;;;0.80;0.52;;;;;;;12.66;61.24;99654.91;10270227;28;20054;-54
2021/05/22 23:01:34;;;;;;;1.67;0.50;;;;;;;12.53;62.06;99668.63;10273055;28;20050;-55
2021/05/22 23:06:35;;;;;;;1.80;0.60;;;;;;;12.65;62.20;99671.09;10284140;28;20061;-56
2021/05/22 23:11:36;;;;;;;4.20;1.23;;;;;;;12.53;62.69;99667.78;10281572;28;20067;-58
2021/05/22 23:16:38;;;;;;;1.40;0.70;;;;;;;12.47;62.40;99673.72;10281371;28;20078;-56
2021/05/22 23:21:41;;;;;;;3.75;0.80;;;;;;;12.34;63.53;99679.41;10263741;28;20567;-54
2021/05/22 23:26:43;;;;;;;3.83;0.82;;;;;;;12.25;64.06;99680.31;10251223;28;20054;-55
2021/05/22 23:31:44;;;;;;;2.40;0.73;;;;;;;12.08;64.18;99673.94;10253018;28;20070;-54
2021/05/22 23:36:46;;;;;;;1.83;0.60;;;;;;;11.97;65.38;99680.31;10255253;28;20685;-55
2021/05/22 23:41:47;;;;;;;2.30;0.57;;;;;;;11.98;65.31;99685.50;10301639;23;20193;-60
2021/05/22 23:46:49;;;;;;;3.35;0.40;;;;;;;11.85;65.59;99684.94;10314018;28;20546;-61
2021/05/22 23:51:50;;;;;;;2.70;0.50;;;;;;;11.64;66.59;99674.50;10299022;28;20046;-61